createdAt,value
2024-01-30T00:01:05.663Z,5.80
2024-01-30T00:03:32.471Z,5.97
2024-01-30T00:05:59.912Z,6.30
2024-01-30T00:08:27.508Z,6.32
2024-01-30T00:10:54.151Z,6.90
2024-01-30T00:13:21.128Z,7.00
2024-01-30T00:15:48.428Z,7.03
2024-01-30T00:18:15.286Z,6.28
2024-01-30T00:20:42.321Z,7.57
2024-01-30T00:23:09.361Z,6.85
2024-01-30T00:25:36.503Z,7.25
2024-01-30T00:28:03.763Z,6.88
2024-01-30T00:30:30.409Z,6.95
2024-01-30T00:35:23.873Z,6.70
2024-01-30T00:37:51.017Z,7.00
2024-01-30T00:40:19.001Z,6.35
2024-01-30T00:42:46.131Z,6.07
2024-01-30T00:45:16.506Z,6.43
2024-01-30T00:47:44.166Z,6.63
2024-01-30T00:50:11.151Z,6.65
2024-01-30T00:52:40.100Z,7.43
2024-01-30T00:55:07.060Z,6.13
2024-01-30T00:57:33.589Z,6.72
2024-01-30T01:00:00.085Z,7.65
2024-01-30T01:02:27.584Z,6.93
2024-01-30T01:04:54.028Z,8.20
2024-01-30T01:07:20.816Z,7.00
2024-01-30T01:09:47.557Z,7.00
2024-01-30T01:14:41.611Z,6.30
2024-01-30T01:17:08.504Z,7.80
2024-01-30T01:19:35.137Z,7.07
2024-01-30T01:22:01.778Z,7.50
2024-01-30T01:24:28.579Z,7.45
2024-01-30T01:26:55.218Z,7.10
2024-01-30T01:29:29.488Z,6.72
2024-01-30T01:31:57.033Z,7.05
2024-01-30T01:34:28.097Z,7.32
2024-01-30T01:36:56.687Z,7.43
2024-01-30T01:39:24.863Z,6.22
2024-01-30T01:41:51.382Z,8.10
2024-01-30T01:44:19.492Z,7.75
2024-01-30T01:46:46.915Z,6.40
2024-01-30T01:49:15.438Z,6.78
2024-01-30T01:51:45.746Z,6.95
2024-01-30T01:54:13.074Z,7.05
2024-01-30T01:56:40.119Z,6.65
2024-01-30T01:59:09.073Z,7.30
2024-01-30T02:01:39.845Z,7.20
2024-01-30T02:04:06.625Z,7.43
2024-01-30T02:09:01.762Z,6.10
2024-01-30T02:11:29.301Z,7.20
2024-01-30T02:13:56.081Z,6.68
2024-01-30T02:16:22.771Z,8.05
2024-01-30T02:18:49.556Z,8.23
2024-01-30T02:21:20.180Z,7.60
2024-01-30T02:23:48.211Z,7.10
2024-01-30T02:26:14.893Z,6.93
2024-01-30T02:28:41.608Z,7.00
2024-01-30T02:31:08.172Z,7.18
2024-01-30T02:33:34.721Z,6.22
2024-01-30T02:36:01.421Z,6.60
2024-01-30T02:38:28.311Z,7.20
2024-01-30T02:43:22.519Z,7.25
2024-01-30T02:45:49.122Z,7.28
2024-01-30T02:48:15.765Z,7.43
2024-01-30T02:50:42.487Z,6.25
2024-01-30T02:53:09.133Z,7.07
2024-01-30T02:55:36.443Z,7.30
2024-01-30T02:58:03.500Z,8.00
2024-01-30T03:00:30.461Z,7.20
2024-01-30T03:02:57.607Z,7.25
2024-01-30T03:05:24.075Z,8.77
2024-01-30T03:07:51.244Z,6.93
2024-01-30T03:10:18.035Z,6.63
2024-01-30T03:12:44.621Z,6.80
2024-01-30T03:15:11.199Z,6.22
2024-01-30T03:17:38.190Z,6.78
2024-01-30T03:22:32.825Z,6.65
2024-01-30T03:24:59.452Z,7.28
2024-01-30T03:27:25.958Z,6.88
2024-01-30T03:29:53.065Z,7.35
2024-01-30T03:34:46.595Z,7.57
2024-01-30T03:37:13.312Z,6.75
2024-01-30T03:39:40.130Z,6.80
2024-01-30T03:42:06.774Z,8.07
2024-01-30T03:44:33.338Z,7.88
2024-01-30T03:47:00.042Z,7.05
2024-01-30T03:49:26.990Z,7.25
2024-01-30T03:51:53.592Z,6.10
2024-01-30T03:54:20.184Z,7.45
2024-01-30T03:56:46.864Z,6.53
2024-01-30T03:59:13.381Z,6.85
2024-01-30T04:01:39.869Z,7.00
2024-01-30T04:04:06.656Z,6.50
2024-01-30T04:06:33.592Z,6.85
2024-01-30T04:09:00.708Z,6.55
2024-01-30T04:11:27.510Z,6.68
2024-01-30T04:13:54.223Z,6.75
2024-01-30T04:16:23.176Z,7.22
2024-01-30T04:18:50.671Z,6.20
2024-01-30T04:21:17.435Z,6.18
2024-01-30T04:23:44.479Z,6.63
2024-01-30T04:26:11.619Z,6.25
2024-01-30T04:28:38.794Z,6.75
2024-01-30T04:31:05.472Z,6.95
2024-01-30T04:33:32.200Z,7.45
2024-01-30T04:35:58.831Z,8.10
2024-01-30T04:40:52.497Z,5.95
2024-01-30T04:43:20.108Z,6.18
2024-01-30T04:45:46.842Z,6.55
2024-01-30T04:50:43.264Z,6.60
2024-01-30T04:53:10.884Z,7.28
2024-01-30T04:55:37.971Z,8.07
2024-01-30T04:58:04.832Z,6.72
2024-01-30T05:00:31.405Z,6.65
2024-01-30T05:02:58.113Z,6.72
2024-01-30T05:05:25.053Z,6.57
2024-01-30T05:07:51.691Z,6.93
2024-01-30T05:10:18.268Z,6.63
2024-01-30T05:12:44.954Z,6.90
2024-01-30T05:15:11.490Z,7.50
2024-01-30T05:17:38.348Z,7.05
2024-01-30T05:20:06.122Z,6.57
2024-01-30T05:22:33.337Z,7.80
2024-01-30T05:24:59.884Z,7.68
2024-01-30T05:27:26.553Z,7.22
2024-01-30T05:29:53.083Z,7.53
2024-01-30T05:32:19.599Z,6.60
2024-01-30T05:34:46.382Z,7.45
2024-01-30T05:37:17.922Z,6.72
2024-01-30T05:39:44.539Z,7.18
2024-01-30T05:42:11.223Z,8.25
2024-01-30T05:44:37.966Z,7.70
2024-01-30T05:47:04.498Z,7.82
2024-01-30T05:49:31.125Z,6.75
2024-01-30T05:51:57.943Z,6.68
2024-01-30T05:54:24.948Z,6.63
2024-01-30T05:56:51.424Z,6.35
2024-01-30T05:59:18.296Z,7.35
2024-01-30T06:01:47.850Z,6.43
2024-01-30T06:04:14.906Z,6.82
2024-01-30T06:06:42.544Z,7.50
2024-01-30T06:09:10.260Z,7.65
2024-01-30T06:11:36.907Z,7.90
2024-01-30T06:14:03.915Z,6.47
2024-01-30T06:16:30.754Z,7.25
2024-01-30T06:18:57.942Z,6.63
2024-01-30T06:21:24.987Z,7.03
2024-01-30T06:26:18.316Z,6.45
2024-01-30T06:28:45.466Z,6.90
2024-01-30T06:33:38.849Z,5.78
2024-01-30T06:36:05.754Z,6.32
2024-01-30T06:38:32.596Z,6.13
2024-01-30T06:40:59.357Z,6.57
2024-01-30T06:43:26.113Z,6.93
2024-01-30T06:45:52.974Z,6.78
2024-01-30T06:48:19.598Z,6.78
2024-01-30T06:50:46.712Z,6.25
2024-01-30T06:53:13.635Z,6.80
2024-01-30T06:58:07.833Z,7.95
2024-01-30T07:03:01.294Z,7.18
2024-01-30T07:05:27.964Z,6.88
2024-01-30T07:07:54.858Z,7.43
2024-01-30T07:10:21.457Z,7.57
2024-01-30T07:12:48.320Z,7.03
2024-01-30T07:15:18.245Z,8.35
2024-01-30T07:17:45.312Z,6.20
2024-01-30T07:20:16.359Z,6.75
2024-01-30T07:22:45.244Z,6.75
2024-01-30T07:25:12.225Z,7.43
2024-01-30T07:27:38.910Z,6.50
2024-01-30T07:30:06.222Z,7.07
2024-01-30T07:32:33.121Z,7.75
2024-01-30T07:37:36.759Z,8.63
2024-01-30T07:40:04.660Z,8.02
2024-01-30T07:42:31.530Z,7.78
2024-01-30T07:44:58.108Z,7.68
2024-01-30T07:47:24.563Z,7.50
2024-01-30T07:49:51.402Z,7.55
2024-01-30T07:52:18.400Z,8.13
2024-01-30T07:54:44.988Z,7.53
2024-01-30T07:57:11.638Z,7.30
2024-01-30T07:59:38.182Z,8.70
2024-01-30T08:02:05.010Z,7.97
2024-01-30T08:04:31.747Z,7.93
2024-01-30T08:06:58.595Z,8.43
2024-01-30T08:11:51.848Z,9.68
2024-01-30T08:14:18.567Z,7.38
2024-01-30T08:16:45.103Z,7.93
2024-01-30T08:19:12.425Z,8.73
2024-01-30T08:21:40.156Z,9.13
2024-01-30T08:24:07.715Z,8.90
2024-01-30T08:26:34.826Z,8.10
2024-01-30T08:29:02.948Z,8.13
2024-01-30T08:31:30.023Z,7.97
2024-01-30T08:33:56.837Z,8.80
2024-01-30T08:36:23.564Z,8.82
2024-01-30T08:38:51.724Z,8.05
2024-01-30T08:41:19.685Z,8.80
2024-01-30T08:43:46.627Z,8.50
2024-01-30T08:46:13.821Z,8.65
2024-01-30T08:48:40.780Z,9.20
2024-01-30T08:51:09.571Z,9.15
2024-01-30T08:53:36.830Z,8.60
2024-01-30T08:56:04.883Z,8.77
2024-01-30T08:58:31.705Z,9.15
2024-01-30T09:00:58.391Z,8.27
2024-01-30T09:03:25.831Z,7.82
2024-01-30T09:05:52.471Z,8.15
2024-01-30T09:08:19.269Z,7.72
2024-01-30T09:10:46.271Z,8.18
2024-01-30T09:13:13.847Z,8.18
2024-01-30T09:15:40.444Z,8.05
2024-01-30T09:18:07.696Z,8.00
2024-01-30T09:20:35.296Z,7.97
2024-01-30T09:23:02.080Z,7.82
2024-01-30T09:25:28.684Z,7.93
2024-01-30T09:27:55.496Z,7.97
2024-01-30T09:30:22.252Z,8.60
2024-01-30T09:35:15.952Z,8.05
2024-01-30T09:37:42.908Z,7.78
2024-01-30T09:40:10.290Z,7.75
2024-01-30T09:42:37.837Z,8.25
2024-01-30T09:45:06.234Z,8.70
2024-01-30T09:47:37.395Z,8.13
2024-01-30T09:50:04.592Z,7.78
2024-01-30T09:52:31.873Z,8.90
2024-01-30T09:55:00.919Z,8.60
2024-01-30T09:57:27.771Z,8.45
2024-01-30T09:59:56.242Z,8.80
2024-01-30T10:02:23.340Z,7.53
2024-01-30T10:04:50.889Z,7.90
2024-01-30T10:07:19.728Z,7.88
2024-01-30T10:09:47.734Z,8.23
2024-01-30T10:12:14.401Z,8.15
2024-01-30T10:14:41.815Z,8.27
2024-01-30T10:17:17.114Z,9.43
2024-01-30T10:19:48.517Z,9.23
2024-01-30T10:24:42.806Z,7.20
2024-01-30T10:27:09.465Z,7.78
2024-01-30T10:29:38.073Z,7.20
2024-01-30T10:32:06.189Z,7.40
2024-01-30T10:34:33.592Z,7.03
2024-01-30T10:37:18.822Z,6.65
2024-01-30T10:39:46.947Z,7.57
2024-01-30T10:42:16.505Z,7.30
2024-01-30T10:44:58.944Z,6.43
2024-01-30T10:47:28.819Z,7.00
2024-01-30T10:49:56.678Z,6.57
2024-01-30T10:52:27.354Z,7.72
2024-01-30T10:54:55.808Z,8.20
2024-01-30T10:57:28.818Z,8.68
2024-01-30T11:00:01.529Z,8.43
2024-01-30T11:02:29.270Z,8.13
2024-01-30T11:04:59.232Z,7.30
2024-01-30T11:07:30.785Z,9.05
2024-01-30T11:10:07.990Z,7.65
2024-01-30T11:12:41.833Z,6.93
2024-01-30T11:15:11.178Z,6.32
2024-01-30T11:17:51.090Z,7.10
2024-01-30T11:20:26.206Z,6.28
2024-01-30T11:22:55.444Z,5.65
2024-01-30T11:25:23.958Z,5.97
2024-01-30T11:27:52.628Z,6.65
2024-01-30T11:30:37.295Z,6.53
2024-01-30T11:33:10.111Z,6.22
2024-01-30T11:35:38.487Z,6.10
2024-01-30T11:38:06.957Z,6.32
2024-01-30T11:40:35.266Z,6.60
2024-01-30T11:43:04.033Z,6.47
2024-01-30T11:45:32.065Z,6.63
2024-01-30T11:48:01.665Z,6.05
2024-01-30T11:50:28.622Z,6.38
2024-01-30T11:52:55.971Z,6.68
2024-01-30T11:55:22.726Z,6.10
2024-01-30T12:00:17.217Z,6.53
2024-01-30T12:02:45.194Z,6.40
2024-01-30T12:05:11.846Z,6.72
2024-01-30T12:07:39.069Z,6.55
2024-01-30T12:10:06.717Z,6.47
2024-01-30T12:12:34.586Z,6.70
2024-01-30T12:15:01.325Z,6.65
2024-01-30T12:20:04.502Z,6.63
2024-01-30T12:22:32.497Z,6.10
2024-01-30T12:24:59.240Z,6.22
2024-01-30T12:27:26.051Z,6.47
2024-01-30T12:29:58.100Z,6.32
2024-01-30T12:32:25.184Z,6.22
2024-01-30T12:35:01.103Z,6.40
2024-01-30T12:37:30.564Z,6.15
2024-01-30T12:39:57.847Z,5.30
2024-01-30T12:42:24.738Z,5.68
2024-01-30T12:44:51.395Z,6.25
2024-01-30T12:47:18.201Z,6.45
2024-01-30T12:52:17.379Z,6.93
2024-01-30T12:54:44.084Z,6.35
2024-01-30T12:59:37.463Z,6.15
2024-01-30T13:04:31.461Z,5.95
2024-01-30T13:06:58.184Z,7.00
2024-01-30T13:09:25.915Z,6.75
2024-01-30T13:11:52.652Z,6.60
2024-01-30T13:14:20.397Z,7.65
2024-01-30T13:16:48.376Z,7.40
2024-01-30T13:19:17.156Z,6.80
2024-01-30T13:21:44.024Z,6.38
2024-01-30T13:24:11.016Z,6.57
2024-01-30T13:29:04.614Z,6.53
2024-01-30T13:33:57.953Z,5.88
2024-01-30T13:36:24.926Z,6.53
2024-01-30T13:38:51.419Z,5.47
2024-01-30T13:41:18.505Z,5.53
2024-01-30T13:43:45.762Z,5.80
2024-01-30T13:46:12.536Z,6.00
2024-01-30T13:48:39.329Z,5.22
2024-01-30T13:51:06.073Z,5.80
2024-01-30T13:53:32.942Z,5.78
2024-01-30T13:55:59.535Z,5.80
2024-01-30T14:00:53.824Z,5.70
2024-01-30T14:03:21.190Z,5.32
2024-01-30T14:05:49.704Z,5.93
2024-01-30T14:08:16.763Z,6.22
2024-01-30T14:10:43.480Z,6.45
2024-01-30T14:13:10.045Z,6.00
2024-01-30T14:15:36.551Z,6.55
2024-01-30T14:18:03.906Z,6.03
2024-01-30T14:22:57.899Z,6.38
2024-01-30T14:25:24.718Z,5.95
2024-01-30T14:27:52.975Z,5.63
2024-01-30T14:30:19.922Z,5.40
2024-01-30T14:32:47.941Z,6.00
2024-01-30T14:35:14.819Z,6.20
2024-01-30T14:40:08.631Z,5.65
2024-01-30T14:42:36.891Z,6.65
2024-01-30T14:45:04.389Z,5.72
2024-01-30T14:47:32.223Z,5.78
2024-01-30T14:49:59.359Z,6.82
2024-01-30T14:52:25.881Z,6.50
2024-01-30T14:54:52.477Z,6.22
2024-01-30T14:59:46.156Z,5.40
2024-01-30T15:02:12.809Z,5.80
2024-01-30T15:04:39.548Z,5.60
2024-01-30T15:07:06.432Z,6.10
2024-01-30T15:09:33.304Z,5.93
2024-01-30T15:11:59.990Z,5.93
2024-01-30T15:14:26.631Z,4.80
2024-01-30T15:19:20.134Z,4.53
2024-01-30T15:21:46.781Z,5.10
2024-01-30T15:24:16.146Z,4.97
2024-01-30T15:26:43.088Z,5.38
2024-01-30T15:29:09.934Z,4.88
2024-01-30T15:31:36.660Z,4.82
2024-01-30T15:36:31.643Z,4.85
2024-01-30T15:38:59.134Z,4.80
2024-01-30T15:43:52.399Z,5.05
2024-01-30T15:46:20.066Z,5.13
2024-01-30T15:48:48.261Z,5.07
2024-01-30T15:51:15.254Z,4.53
2024-01-30T15:53:43.346Z,4.32
2024-01-30T15:56:10.325Z,4.18
2024-01-30T15:58:36.887Z,4.22
2024-01-30T16:01:04.376Z,3.72
2024-01-30T16:03:32.283Z,4.75
2024-01-30T16:05:59.349Z,4.93
2024-01-30T16:08:26.283Z,5.30
2024-01-30T16:10:52.785Z,5.13
2024-01-30T16:13:19.380Z,6.57
2024-01-30T16:15:45.964Z,5.30
2024-01-30T16:18:12.773Z,5.57
2024-01-30T16:20:39.374Z,5.85
2024-01-30T16:23:05.938Z,5.22
2024-01-30T16:25:32.719Z,5.10
2024-01-30T16:27:59.897Z,5.32
2024-01-30T16:30:26.661Z,4.90
2024-01-30T16:32:54.943Z,4.38
2024-01-30T16:35:21.888Z,5.30
2024-01-30T16:38:09.135Z,5.43
2024-01-30T16:40:35.700Z,6.20
2024-01-30T16:43:02.799Z,5.47
2024-01-30T16:47:58.634Z,4.78
2024-01-30T16:52:52.788Z,4.38
2024-01-30T16:55:20.002Z,3.80
2024-01-30T16:57:46.699Z,3.85
2024-01-30T17:00:13.966Z,3.92
2024-01-30T17:02:40.847Z,3.97
2024-01-30T17:05:16.060Z,4.03
2024-01-30T17:07:50.255Z,4.35
2024-01-30T17:10:18.875Z,8.45
2024-01-30T17:12:45.583Z,5.80
2024-01-30T17:15:13.308Z,6.35
2024-01-30T17:17:40.613Z,5.15
2024-01-30T17:20:08.783Z,5.20
2024-01-30T17:22:35.693Z,4.60
2024-01-30T17:25:02.919Z,5.05
2024-01-30T17:27:29.785Z,4.90
2024-01-30T17:32:26.440Z,15.02
2024-01-30T17:34:53.638Z,10.45
2024-01-30T17:37:20.651Z,8.98
2024-01-30T17:39:47.704Z,11.63
2024-01-30T17:42:14.325Z,7.43
2024-01-30T17:44:41.730Z,6.85
2024-01-30T17:47:08.381Z,7.03
2024-01-30T17:49:35.104Z,6.82
2024-01-30T17:52:03.763Z,6.88
2024-01-30T17:54:30.570Z,7.43
2024-01-30T17:56:57.581Z,7.30
2024-01-30T17:59:24.254Z,7.95
2024-01-30T18:01:52.124Z,6.60
2024-01-30T18:04:19.757Z,6.70
2024-01-30T18:06:54.552Z,7.20
2024-01-30T18:09:26.414Z,6.70
2024-01-30T18:11:53.124Z,6.53
2024-01-30T18:14:20.140Z,6.85
2024-01-30T18:16:47.008Z,3.45
2024-01-30T18:19:14.181Z,3.90
2024-01-30T18:21:41.611Z,3.70
2024-01-30T18:24:08.657Z,2.85
2024-01-30T18:26:36.797Z,2.78
2024-01-30T18:29:05.547Z,3.10
2024-01-30T18:31:32.108Z,2.50
2024-01-30T18:33:59.206Z,2.33
2024-01-30T18:36:26.906Z,2.10
2024-01-30T18:38:56.709Z,2.00
2024-01-30T18:41:23.295Z,2.80
2024-01-30T18:43:49.950Z,6.78
2024-01-30T18:46:22.866Z,4.15
2024-01-30T18:48:49.571Z,2.42
2024-01-30T18:51:19.958Z,1.42
2024-01-30T18:53:48.221Z,2.10
2024-01-30T18:56:14.805Z,1.50
2024-01-30T18:58:41.379Z,1.38
2024-01-30T19:01:09.606Z,1.52
2024-01-30T19:03:36.659Z,0.82
2024-01-30T19:06:03.654Z,0.70
2024-01-30T19:08:31.547Z,0.90
2024-01-30T19:10:58.289Z,0.88
2024-01-30T19:13:25.580Z,1.13
2024-01-30T19:15:52.195Z,0.88
2024-01-30T19:20:45.862Z,1.70
2024-01-30T19:23:12.813Z,1.92
2024-01-30T19:25:41.529Z,2.53
2024-01-30T19:28:10.419Z,2.28
2024-01-30T19:30:37.015Z,1.35
2024-01-30T19:33:06.859Z,1.90
2024-01-30T19:35:33.373Z,1.83
2024-01-30T19:38:00.710Z,1.45
2024-01-30T19:40:27.441Z,1.20
2024-01-30T19:42:54.724Z,1.00
2024-01-30T19:45:21.242Z,2.13
2024-01-30T19:47:47.979Z,1.40
2024-01-30T19:50:14.781Z,1.67
2024-01-30T19:52:44.290Z,1.40
2024-01-30T19:55:11.085Z,1.00
2024-01-30T19:57:37.665Z,0.80
2024-01-30T20:00:04.952Z,1.00
2024-01-30T20:02:32.251Z,0.88
2024-01-30T20:05:00.257Z,1.58
2024-01-30T20:07:27.837Z,1.77
2024-01-30T20:09:54.519Z,1.70
2024-01-30T20:12:21.156Z,1.08
2024-01-30T20:14:47.714Z,0.85
2024-01-30T20:17:15.404Z,0.82
2024-01-30T20:19:45.349Z,1.10
2024-01-30T20:22:12.340Z,0.82
2024-01-30T20:24:39.177Z,1.48
2024-01-30T20:27:07.245Z,0.75
2024-01-30T20:29:34.607Z,0.80
2024-01-30T20:32:01.388Z,1.20
2024-01-30T20:34:28.251Z,1.42
2024-01-30T20:36:55.032Z,1.15
2024-01-30T20:39:22.295Z,1.15
2024-01-30T20:44:17.174Z,1.10
2024-01-30T20:46:43.839Z,1.20
2024-01-30T20:49:15.712Z,1.17
2024-01-30T20:51:43.655Z,0.90
2024-01-30T20:54:10.296Z,1.00
2024-01-30T20:56:36.738Z,0.75
2024-01-30T20:59:04.155Z,0.60
2024-01-30T21:01:30.981Z,0.60
2024-01-30T21:03:57.864Z,0.80
2024-01-30T21:06:25.218Z,0.70
2024-01-30T21:08:52.289Z,0.50
2024-01-30T21:11:20.093Z,1.25
2024-01-30T21:13:47.558Z,0.65
2024-01-30T21:16:14.268Z,0.80
2024-01-30T21:18:44.414Z,1.10
2024-01-30T21:21:11.817Z,0.80
2024-01-30T21:23:40.072Z,0.93
2024-01-30T21:26:08.724Z,0.98
2024-01-30T21:28:36.443Z,0.88
2024-01-30T21:31:08.938Z,1.20
2024-01-30T21:33:36.984Z,0.85
2024-01-30T21:36:04.627Z,0.60
2024-01-30T21:38:31.479Z,1.02
2024-01-30T21:40:58.106Z,0.90
2024-01-30T21:43:25.858Z,0.88
2024-01-30T21:45:52.575Z,0.50
2024-01-30T21:48:19.334Z,0.68
2024-01-30T21:50:46.357Z,0.57
2024-01-30T21:53:13.086Z,0.70
2024-01-30T21:55:39.732Z,1.40
2024-01-30T21:58:07.089Z,0.47
2024-01-30T22:00:34.444Z,0.90
2024-01-30T22:03:01.166Z,0.70
2024-01-30T22:05:27.865Z,0.60
2024-01-30T22:07:54.642Z,0.70
2024-01-30T22:10:21.345Z,0.60
2024-01-30T22:12:48.857Z,0.75
2024-01-30T22:15:15.712Z,1.27
2024-01-30T22:17:42.569Z,1.10
2024-01-30T22:20:11.496Z,0.93
2024-01-30T22:22:38.216Z,0.70
2024-01-30T22:25:05.816Z,1.17
2024-01-30T22:27:32.884Z,0.98
2024-01-30T22:29:59.313Z,1.33
2024-01-30T22:32:26.025Z,1.02
2024-01-30T22:34:52.695Z,1.33
2024-01-30T22:37:19.594Z,1.00
2024-01-30T22:39:46.139Z,0.98
2024-01-30T22:42:12.682Z,0.80
2024-01-30T22:44:39.332Z,1.00
2024-01-30T22:47:06.085Z,0.80
2024-01-30T22:49:32.924Z,0.80
2024-01-30T22:51:59.929Z,0.57
2024-01-30T22:54:26.576Z,0.40
2024-01-30T22:56:53.388Z,0.60
2024-01-30T22:59:20.299Z,0.90
2024-01-30T23:01:47.898Z,0.68
2024-01-30T23:04:14.909Z,1.30
2024-01-30T23:06:42.150Z,0.82
2024-01-30T23:09:09.343Z,0.80
2024-01-30T23:11:36.009Z,0.82
2024-01-30T23:14:02.661Z,0.70
2024-01-30T23:16:29.536Z,0.60
2024-01-30T23:21:23.019Z,1.17
2024-01-30T23:23:49.648Z,1.10
2024-01-30T23:26:16.799Z,1.10
2024-01-30T23:28:44.194Z,1.08
2024-01-30T23:31:10.717Z,1.08
2024-01-30T23:36:04.990Z,0.88
2024-01-30T23:40:58.236Z,1.10
2024-01-30T23:43:27.747Z,0.98
2024-01-30T23:45:57.004Z,1.05
2024-01-30T23:48:24.131Z,1.13
2024-01-30T23:50:52.166Z,1.10
2024-01-30T23:53:19.363Z,1.58
2024-01-30T23:58:12.941Z,1.20
